Flight Track Log - Related Links

Times and Time Zones

All times are in EDT time to prevent confusion due to time zone crossing. See the JST561 flight status page for this flight to view local times or setup timezone preferences in your user account.

Time Position Orientation Groundspeed Altitude Reporting Facility
EDT Latitude Longitude Course Direction KTS MPH feet Rate Location/Type
Sat 06:15:57 PM -27.3880 153.1220 104° East 7 8  Level FlightAware ADS-B
Sat 06:16:12 PM -27.3880 153.1230 90° East 11 13 37 Level FlightAware ADS-B
Sat 06:16:27 PM -27.3870 153.1230 360° North 14 16 39 Level FlightAware ADS-B
Sat 06:16:57 PM -27.3850 153.1250 42° Northeast 21 24 41 Level FlightAware ADS-B
Sat 06:17:22 PM -27.3820 153.1260 16° North 27 31 45 Level FlightAware ADS-B
Sat 06:17:52 PM -27.3790 153.1280 31° Northeast 19 22 50 Level FlightAware ADS-B
Sat 06:18:22 PM -27.3760 153.1300 31° Northeast 26 30 57 Level FlightAware ADS-B
Sat 06:18:47 PM -27.3740 153.1310 24° Northeast 17 20 67 Level FlightAware ADS-B
Sat 06:19:42 PM -27.3740 153.1340 90° East 17 20 77 Level FlightAware ADS-B
Sat 06:20:12 PM -27.3750 153.1340 180° South 120 Level FlightAware ADS-B
Sat 06:20:52 PM -27.3760 153.1340 180° South 43 49 171 Level FlightAware ADS-B
Sat 06:21:22 PM -27.3900 153.1260 207° Southwest 151 174 200 1,067 Climbing FlightAware ADS-B
Sat 06:21:37 PM -27.3980 153.1210 209° Southwest 148 170 800 1,950 Climbing FlightAware ADS-B
Sat 06:22:02 PM -27.4140 153.1110 209° Southwest 170 196 1,500 1,714 Climbing FlightAware ADS-B
Sat 06:22:12 PM -27.4230 153.1090 191° South 179 206 1,800 1,800 Climbing FlightAware ADS-B
Sat 06:22:32 PM -27.4390 153.1150 162° South 201 231 2,400 2,400 Climbing FlightAware ADS-B
Sat 06:22:57 PM -27.4610 153.1270 154° Southeast 211 243 3,600 2,556 Climbing FlightAware ADS-B
Sat 06:23:26 PM -27.4937 153.1461 154° Southeast 235 270 4,700 1,800 Climbing Aus ATC (RADAR)
Sat 06:23:27 PM -27.4900 153.1430 154° Southeast 251 289 4,500 1,091 Descending FlightAware ADS-B
Sat 06:23:37 PM -27.5000 153.1460 165° South 260 299 4,900 2,600 Climbing FlightAware ADS-B
Sat 06:23:57 PM -27.5250 153.1430 186° South 280 322 5,800 2,133 Climbing FlightAware ADS-B
Sat 06:24:22 PM -27.5590 153.1340 193° South 315 362 6,500 1,500 Climbing FlightAware ADS-B
Sat 06:24:37 PM -27.5820 153.1250 199° South 335 386 6,800 1,800 Climbing FlightAware ADS-B
Sat 06:25:02 PM -27.6180 153.1100 200° South 355 409 7,700 2,550 Climbing FlightAware ADS-B
Sat 06:25:17 PM -27.6400 153.1010 200° South 354 407 8,500 2,933 Climbing FlightAware ADS-B
Sat 06:25:47 PM -27.6860 153.0800 202° Southwest 358 412 9,900 3,000 Climbing FlightAware ADS-B
Sat 06:26:15 PM -27.7348 153.0426 202° Southwest 362 417 11,400 2,700 Climbing Aus ATC (RADAR)
Sat 06:26:27 PM -27.7420 153.0360 202° Southwest 373 429 11,700 2,914 Climbing FlightAware ADS-B
Sat 06:26:50 PM -27.7851 153.0043 202° Southwest 371 427 13,100 3,067 Climbing Aus ATC (RADAR)
Sat 06:27:12 PM -27.8080 152.9870 202° Southwest 371 427 14,000 2,509 Climbing FlightAware ADS-B
Sat 06:27:45 PM -27.8645 152.9446 202° Southwest 376 433 15,400 2,250 Climbing Aus ATC (RADAR)
Sat 06:27:52 PM -27.8670 152.9430 202° Southwest 382 440 15,500 2,400 Climbing FlightAware ADS-B
Sat 06:28:20 PM -27.9160 152.9056 202° Southwest 380 437 16,800 2,400 Climbing Aus ATC (RADAR)
Sat 06:28:37 PM -27.9310 152.8940 202° Southwest 388 447 17,300 2,291 Climbing FlightAware ADS-B
Sat 06:29:15 PM -27.9985 152.8431 202° Southwest 387 445 18,900 2,250 Climbing Aus ATC (RADAR)
Sat 06:29:17 PM -27.9920 152.8480 202° Southwest 393 452 18,800 1,714 Descending FlightAware ADS-B
Sat 06:29:57 PM -28.0540 152.8000 214° Southwest 401 461 20,100 1,976 Climbing FlightAware ADS-B
Sat 06:30:42 PM -28.1240 152.7460 214° Southwest 402 463 21,600 2,188 Climbing FlightAware ADS-B
Sat 06:31:22 PM -28.1800 152.7030 214° Southwest 396 456 23,200 1,765 Climbing FlightAware ADS-B
Sat 06:32:07 PM -28.2540 152.6470 214° Southwest 406 467 24,100 1,397 Climbing FlightAware ADS-B
Sat 06:32:35 PM -28.3067 152.6069 214° Southwest 409 471 24,900 1,500 Climbing Aus ATC (RADAR)
Sat 06:32:47 PM -28.3180 152.5980 214° Southwest 411 473 25,100 1,543 Climbing FlightAware ADS-B
Sat 06:33:10 PM -28.3621 152.5649 214° Southwest 411 473 25,800 1,350 Climbing Aus ATC (RADAR)
Sat 06:33:27 PM -28.3800 152.5500 214° Southwest 413 475 26,000 1,532 Climbing FlightAware ADS-B
Sat 06:33:57 PM -28.4270 152.5140 214° Southwest 408 470 27,000 2,170 Climbing FlightAware ADS-B
Sat 06:34:14 PM -28.4643 152.4860 214° Southwest 408 470 27,700 1,350 Climbing Aus ATC (RADAR)
Sat 06:34:37 PM -28.4890 152.4660 214° Southwest 409 471 27,900 1,412 Climbing FlightAware ADS-B
Sat 06:35:22 PM -28.5590 152.4120 214° Southwest 403 464 29,300 2,418 Climbing FlightAware ADS-B
Sat 06:35:44 PM -28.6036 152.3791 214° Southwest 396 456 30,600 2,400 Climbing Aus ATC (RADAR)
Sat 06:36:02 PM -28.6190 152.3660 214° Southwest 385 443 30,900 1,714 Climbing FlightAware ADS-B
Sat 06:36:19 PM -28.6546 152.3390 214° Southwest 384 442 31,600 1,333 Climbing Aus ATC (RADAR)
Sat 06:36:47 PM -28.6870 152.3130 214° Southwest 385 443 31,900 1,059 Climbing FlightAware ADS-B
Sat 06:37:27 PM -28.7450 152.2680 214° Southwest 385 443 32,800 1,263 Climbing FlightAware ADS-B
Sat 06:37:44 PM -28.7797 152.2419 214° Southwest 387 445 33,100 750 Climbing Aus ATC (RADAR)
Sat 06:38:07 PM -28.8030 152.2220 214° Southwest 391 450 33,300 1,147 Climbing FlightAware ADS-B
Sat 06:38:52 PM -28.8710 152.1700 214° Southwest 388 447 34,400 1,433 Climbing FlightAware ADS-B
Sat 06:39:14 PM -28.9135 152.1376 214° Southwest 387 445 34,900 973 Climbing Aus ATC (RADAR)
Sat 06:39:29 PM -28.9357 152.1201 215° Southwest 388 447 35,000 333 Climbing Aus ATC (RADAR)
Sat 06:39:32 PM -28.9320 152.1220 215° Southwest 390 449 35,000 1,000 Level FlightAware ADS-B
Sat 06:39:59 PM -28.9806 152.0851 215° Southwest 392 451 35,500 900 Climbing Aus ATC (RADAR)
Sat 06:40:12 PM -28.9910 152.0760 215° Southwest 391 450 35,600 655 Climbing FlightAware ADS-B
Sat 06:40:54 PM -29.0615 152.0218 215° Southwest 383 441 36,100 533 Climbing Aus ATC (RADAR)
Sat 06:40:57 PM -29.0560 152.0250 215° Southwest 379 436 36,000 -171 Descending FlightAware ADS-B
Sat 06:41:29 PM -29.1125 151.9825 215° Southwest 381 438 36,000  Level Aus ATC (RADAR)
Sat 06:41:37 PM -29.1140 151.9790 215° Southwest 383 441 36,000  Level FlightAware ADS-B
Sat 06:42:22 PM -29.1790 151.9280 214° Southwest 384 442 36,000  Level FlightAware ADS-B
Sat 06:42:44 PM -29.2225 151.8967 214° Southwest 384 442 36,000  Level Aus ATC (RADAR)
Sat 06:43:02 PM -29.2400 151.8810 214° Southwest 384 442 36,000  Level FlightAware ADS-B
Sat 06:43:19 PM -29.2738 151.8566 214° Southwest 384 442 36,000  Level Aus ATC (RADAR)
Sat 06:43:42 PM -29.2960 151.8370 214° Southwest 384 442 36,000  Level FlightAware ADS-B
Sat 06:44:09 PM -29.3468 151.7991 214° Southwest 383 441 36,000  Level Aus ATC (RADAR)
Sat 06:44:27 PM -29.3640 151.7830 214° Southwest 384 442 36,000  Level FlightAware ADS-B
Sat 06:44:58 PM -29.4201 151.7411 214° Southwest 385 443 36,000  Level Aus ATC (RADAR)
Sat 06:45:07 PM -29.4210 151.7380 214° Southwest 384 442 36,000  Level FlightAware ADS-B
Sat 06:45:52 PM -29.4890 151.6840 215° Southwest 383 441 36,000  Level FlightAware ADS-B
Sat 06:46:28 PM -29.5498 151.6367 215° Southwest 381 438 36,000  Level Aus ATC (RADAR)
Sat 06:46:32 PM -29.5440 151.6380 215° Southwest 380 437 36,000  Level FlightAware ADS-B
Sat 06:47:17 PM -29.6070 151.5810 218° Southwest 380 437 36,000  Level FlightAware ADS-B
Sat 06:47:38 PM -29.6460 151.5482 218° Southwest 383 441 36,000  Level Aus ATC (RADAR)
Sat 06:47:57 PM -29.6620 151.5310 218° Southwest 380 437 36,000  Level FlightAware ADS-B
Sat 06:48:23 PM -29.7083 151.4919 218° Southwest 383 441 36,000  Level Aus ATC (RADAR)
Sat 06:48:37 PM -29.7190 151.4800 218° Southwest 381 438 36,000 109 Level FlightAware ADS-B
Sat 06:49:18 PM -29.7839 151.4223 218° Southwest 383 441 36,100  Climbing Aus ATC (RADAR)
Sat 06:49:22 PM -29.7790 151.4250 218° Southwest 381 438 36,000 -136 Descending FlightAware ADS-B
Sat 06:50:02 PM -29.8360 151.3740 218° Southwest 382 440 36,000  Level FlightAware ADS-B
Sat 06:50:47 PM -29.8990 151.3160 219° Southwest 381 438 36,000 98 Level FlightAware ADS-B
Sat 06:51:03 PM -29.9292 151.2906 219° Southwest 382 440 36,100 194 Climbing Aus ATC (RADAR)
Sat 06:51:18 PM -29.9499 151.2715 219° Southwest 383 441 36,100 -250 Level Aus ATC (RADAR)
Sat 06:51:27 PM -29.9540 151.2660 219° Southwest 381 438 36,000  Descending FlightAware ADS-B
Sat 06:51:48 PM -29.9916 151.2339 219° Southwest 382 440 36,100  Climbing Aus ATC (RADAR)
Sat 06:52:07 PM -30.0040 151.2200 219° Southwest 381 438 36,000  Descending FlightAware ADS-B
Sat 06:52:47 PM -30.0736 151.1557 219° Southwest 386 444 36,100  Climbing Aus ATC (RADAR)
Sat 06:52:52 PM -30.0710 151.1600 219° Southwest 381 438 36,000 -133 Descending FlightAware ADS-B
Sat 06:53:32 PM -30.1280 151.1070 219° Southwest 382 440 36,000  Level FlightAware ADS-B
Sat 06:54:12 PM -30.1820 151.0580 218° Southwest 382 440 36,000 100 Level FlightAware ADS-B
Sat 06:54:32 PM -30.2190 151.0237 218° Southwest 383 441 36,100  Climbing Aus ATC (RADAR)
Sat 06:54:52 PM -30.2300 151.0150 218° Southwest 382 440 36,000  Descending FlightAware ADS-B
Sat 06:55:17 PM -30.2813 150.9665 218° Southwest 382 440 36,100  Climbing Aus ATC (RADAR)
Sat 06:55:32 PM -30.2770 150.9720 218° Southwest 382 440 36,000  Descending FlightAware ADS-B
Sat 06:56:12 PM -30.3573 150.8966 218° Southwest 383 441 36,100  Climbing Aus ATC (RADAR)
Sat 06:56:22 PM -30.3360 150.9190 218° Southwest 382 440 36,000 -120 Descending FlightAware ADS-B
Sat 06:57:02 PM -30.3830 150.8760 218° Southwest 382 440 36,000  Level FlightAware ADS-B
Sat 06:57:42 PM -30.4310 150.8330 218° Southwest 382 440 36,000 98 Level FlightAware ADS-B
Sat 06:58:03 PM -30.5093 150.7575 218° Southwest 385 443 36,100  Climbing Aus ATC (RADAR)
Sat 06:58:22 PM -30.4780 150.7900 218° Southwest 382 440 36,000  Descending FlightAware ADS-B
Sat 06:58:37 PM -30.5576 150.7129 218° Southwest 382 440 36,100  Climbing Aus ATC (RADAR)
Sat 06:59:02 PM -30.5250 150.7470 218° Southwest 382 440 36,000  Descending FlightAware ADS-B
Sat 06:59:32 PM -30.6333 150.6418 218° Southwest 383 441 36,100 133 Climbing Aus ATC (RADAR)
Sat 06:59:47 PM -30.6539 150.6227 219° Southwest 382 440 36,100 -300 Level Aus ATC (RADAR)
Sat 06:59:52 PM -30.5850 150.6930 219° Southwest 382 440 36,000  Descending FlightAware ADS-B
Sat 07:00:22 PM -30.7016 150.5784 219° Southwest 379 436 36,100  Climbing Aus ATC (RADAR)
Sat 07:00:32 PM -30.6320 150.6500 219° Southwest 382 440 36,000 -120 Descending FlightAware ADS-B
Sat 07:01:12 PM -30.6790 150.6070 218° Southwest 382 440 36,000  Level FlightAware ADS-B
Sat 07:01:52 PM -30.7270 150.5640 218° Southwest 382 440 36,000  Level FlightAware ADS-B
Sat 07:02:32 PM -30.7740 150.5210 218° Southwest 382 440 36,000 92 Level FlightAware ADS-B
Sat 07:02:57 PM -30.9104 150.3837 218° Southwest 371 427 36,100 150 Climbing Aus ATC (RADAR)
Sat 07:03:12 PM -30.9307 150.3648 219° Southwest 372 428 36,100 -240 Level Aus ATC (RADAR)
Sat 07:03:22 PM -30.8330 150.4670 219° Southwest 382 440 36,000  Descending FlightAware ADS-B
Sat 07:03:46 PM -30.9774 150.3213 219° Southwest 371 427 36,100 76 Climbing Aus ATC (RADAR)
Sat 07:04:41 PM -31.0504 150.2527 219° Southwest 369 425 36,100 -107 Level Aus ATC (RADAR)
Sat 07:04:42 PM -31.0390 150.2630 219° Southwest 362 417 36,000 -130 Descending FlightAware ADS-B
Sat 07:05:27 PM -31.1000 150.2050 219° Southwest 360 414 36,000  Level FlightAware ADS-B
Sat 07:06:07 PM -31.1530 150.1550 219° Southwest 360 414 36,000 97 Level FlightAware ADS-B
Sat 07:06:29 PM -31.1910 150.1202 219° Southwest 360 414 36,100  Climbing Aus ATC (RADAR)
Sat 07:06:47 PM -31.2010 150.1100 219° Southwest 360 414 36,000  Descending FlightAware ADS-B
Sat 07:07:04 PM -31.2371 150.0767 219° Southwest 361 415 36,100  Climbing Aus ATC (RADAR)
Sat 07:07:32 PM -31.2650 150.0490 219° Southwest 360 414 36,000  Descending FlightAware ADS-B
Sat 07:08:01 PM -31.3134 150.0043 219° Southwest 365 420 36,100  Climbing Aus ATC (RADAR)
Sat 07:08:17 PM -31.3260 149.9920 219° Southwest 359 413 36,000 133 Descending FlightAware ADS-B
Sat 07:08:46 PM -31.3720 149.9486 219° Southwest 363 418 36,200 150 Climbing Aus ATC (RADAR)
Sat 07:08:57 PM -31.3760 149.9440 219° Southwest 356 410 36,100 -235 Descending FlightAware ADS-B
Sat 07:09:37 PM -31.4290 149.8940 219° Southwest 358 412 36,000  Descending FlightAware ADS-B
Sat 07:10:01 PM -31.4688 149.8569 219° Southwest 358 412 36,100  Climbing Aus ATC (RADAR)
Sat 07:10:22 PM -31.4870 149.8390 219° Southwest 356 410 36,000 -79 Descending FlightAware ADS-B
Sat 07:11:17 PM -31.5550 149.7740 219° Southwest 355 409 36,000 74 Level FlightAware ADS-B
Sat 07:11:43 PM -31.5985 149.7332 219° Southwest 350 403 36,100  Climbing Aus ATC (RADAR)
Sat 07:11:57 PM -31.6090 149.7230 219° Southwest 354 407 36,000  Descending FlightAware ADS-B
Sat 07:12:18 PM -31.6431 149.6911 219° Southwest 348 400 36,100  Climbing Aus ATC (RADAR)
Sat 07:12:42 PM -31.6680 149.6670 219° Southwest 355 409 36,000  Descending FlightAware ADS-B
Sat 07:13:18 PM -31.7190 149.6187 219° Southwest 348 400 36,100  Climbing Aus ATC (RADAR)
Sat 07:13:22 PM -31.7190 149.6180 219° Southwest 354 407 36,000 -136 Descending FlightAware ADS-B
Sat 07:14:02 PM -31.7690 149.5700 219° Southwest 354 407 36,000 140 Level FlightAware ADS-B
Sat 07:14:05 PM -31.7803 149.5590 219° Southwest 356 410 36,100  Climbing Aus ATC (RADAR)
Sat 07:14:47 PM -31.8260 149.5150 219° Southwest 353 406 36,000  Descending FlightAware ADS-B
Sat 07:15:04 PM -31.8517 149.4907 219° Southwest 347 399 36,100  Climbing Aus ATC (RADAR)
Sat 07:15:27 PM -31.8780 149.4660 219° Southwest 353 406 36,000 -88 Descending FlightAware ADS-B
Sat 07:16:12 PM -31.9350 149.4110 219° Southwest 353 406 36,000 86 Level FlightAware ADS-B
Sat 07:16:37 PM -31.9719 149.3755 219° Southwest 347 399 36,100  Climbing Aus ATC (RADAR)
Sat 07:16:52 PM -31.9860 149.3620 219° Southwest 353 406 36,000  Descending FlightAware ADS-B
Sat 07:17:12 PM -32.0163 149.3326 219° Southwest 350 403 36,100  Climbing Aus ATC (RADAR)
Sat 07:17:37 PM -32.0420 149.3070 219° Southwest 353 406 36,000 -92 Descending FlightAware ADS-B
Sat 07:18:17 PM -32.0940 149.2570 219° Southwest 351 404 36,000 92 Level FlightAware ADS-B
Sat 07:18:42 PM -32.1294 149.2233 219° Southwest 348 400 36,100  Climbing Aus ATC (RADAR)
Sat 07:18:57 PM -32.1450 149.2080 219° Southwest 343 395 36,000  Descending FlightAware ADS-B
Sat 07:19:17 PM -32.1729 149.1803 219° Southwest 346 398 36,100  Climbing Aus ATC (RADAR)
Sat 07:19:42 PM -32.2000 149.1540 219° Southwest 342 394 36,000 -100 Descending FlightAware ADS-B
Sat 07:20:17 PM -32.2450 149.1110 219° Southwest 341 392 36,000 150 Level FlightAware ADS-B
Sat 07:20:22 PM -32.2537 149.1022 219° Southwest 343 395 36,100 300 Climbing Aus ATC (RADAR)
Sat 07:20:37 PM -32.2722 149.0842 219° Southwest 342 394 36,100 -150 Level Aus ATC (RADAR)
Sat 07:21:02 PM -32.3000 149.0570 219° Southwest 341 392 36,000 -86 Descending FlightAware ADS-B
Sat 07:21:47 PM -32.3550 149.0040 219° Southwest 340 391 36,000  Level FlightAware ADS-B
Sat 07:22:27 PM -32.4040 148.9550 220° Southwest 340 391 36,000  Level FlightAware ADS-B
Sat 07:23:12 PM -32.4600 148.9010 219° Southwest 339 390 36,000 95 Level FlightAware ADS-B
Sat 07:23:30 PM -32.4862 148.8757 219° Southwest 345 397 36,100  Climbing Aus ATC (RADAR)
Sat 07:23:52 PM -32.5100 148.8520 219° Southwest 339 390 36,000  Descending FlightAware ADS-B
Sat 07:24:07 PM -32.5313 148.8316 219° Southwest 341 392 36,100 97 Climbing Aus ATC (RADAR)
Sat 07:24:54 PM -32.5905 148.7730 220° Southwest 345 397 36,100 257 Level Aus ATC (RADAR)
Sat 07:25:17 PM -32.6090 148.7550 220° Southwest 341 392 36,400 857 Climbing FlightAware ADS-B
Sat 07:26:04 PM -32.6776 148.6871 220° Southwest 352 405 37,100 759 Climbing Aus ATC (RADAR)
Sat 07:26:36 PM -32.7177 148.6475 220° Southwest 351 404 37,400 474 Climbing Aus ATC (RADAR)
Sat 07:26:42 PM -32.7170 148.6480 220° Southwest 358 412 37,400 522 Level FlightAware ADS-B
Sat 07:27:22 PM -32.7700 148.5960 220° Southwest 358 412 37,800 424 Climbing FlightAware ADS-B
Sat 07:28:07 PM -32.8280 148.5390 220° Southwest 358 412 38,000 141 Climbing FlightAware ADS-B
Sat 07:28:47 PM -32.8800 148.4880 219° Southwest 359 413 38,000 105 Level FlightAware ADS-B
Sat 07:29:04 PM -32.9078 148.4603 219° Southwest 359 413 38,100  Climbing Aus ATC (RADAR)
Sat 07:29:27 PM -32.9300 148.4380 219° Southwest 360 414 38,000 -88 Descending FlightAware ADS-B
Sat 07:30:12 PM -32.9890 148.3790 220° Southwest 360 414 38,000 76 Level FlightAware ADS-B
Sat 07:30:46 PM -33.0380 148.3309 220° Southwest 358 412 38,100  Climbing Aus ATC (RADAR)
Sat 07:30:52 PM -33.0370 148.3320 220° Southwest 361 415 38,000 -118 Descending FlightAware ADS-B
Sat 07:31:37 PM -33.0950 148.2730 220° Southwest 360 414 38,000  Level FlightAware ADS-B
Sat 07:32:17 PM -33.1500 148.2190 219° Southwest 354 407 38,000 76 Level FlightAware ADS-B
Sat 07:32:56 PM -33.2057 148.1679 219° Southwest 358 412 38,100  Climbing Aus ATC (RADAR)
Sat 07:32:57 PM -33.2020 148.1710 219° Southwest 361 415 38,000 -130 Descending FlightAware ADS-B
Sat 07:33:42 PM -33.2620 148.1170 217° Southwest 353 406 38,000 85 Level FlightAware ADS-B
Sat 07:34:08 PM -33.3025 148.0797 217° Southwest 360 414 38,100  Climbing Aus ATC (RADAR)
Sat 07:34:22 PM -33.3150 148.0680 217° Southwest 353 406 38,000  Descending FlightAware ADS-B
Sat 07:34:41 PM -33.3445 148.0410 217° Southwest 357 411 38,100  Climbing Aus ATC (RADAR)
Sat 07:35:07 PM -33.3760 148.0110 217° Southwest 352 405 38,000  Descending FlightAware ADS-B
Sat 07:35:43 PM -33.4269 147.9642 217° Southwest 358 412 38,100  Climbing Aus ATC (RADAR)
Sat 07:35:47 PM -33.4230 147.9680 217° Southwest 352 405 38,000  Descending FlightAware ADS-B
Sat 07:36:18 PM -33.4727 147.9220 217° Southwest 358 412 38,100  Climbing Aus ATC (RADAR)
Sat 07:36:27 PM -33.4800 147.9150 217° Southwest 352 405 38,000 -111 Descending FlightAware ADS-B
Sat 07:37:12 PM -33.5390 147.8600 218° Southwest 351 404 38,000 72 Level FlightAware ADS-B
Sat 07:37:50 PM -33.5928 147.8099 218° Southwest 356 410 38,100  Climbing Aus ATC (RADAR)
Sat 07:37:52 PM -33.5910 147.8120 218° Southwest 351 404 38,000 -143 Descending FlightAware ADS-B
Sat 07:38:32 PM -33.6450 147.7610 218° Southwest 351 404 38,000 85 Level FlightAware ADS-B
Sat 07:39:03 PM -33.6878 147.7214 218° Southwest 355 409 38,100 113 Climbing Aus ATC (RADAR)
Sat 07:39:25 PM -33.7163 147.6949 218° Southwest 352 405 38,100 -111 Level Aus ATC (RADAR)
Sat 07:39:57 PM -33.7500 147.6630 218° Southwest 349 402 38,000  Descending FlightAware ADS-B
Sat 07:40:48 PM -33.8241 147.5936 218° Southwest 355 409 38,100  Climbing Aus ATC (RADAR)
Sat 07:41:07 PM -33.8420 147.5770 218° Southwest 350 403 38,000 -94 Descending FlightAware ADS-B
Sat 07:41:52 PM -33.8990 147.5230 218° Southwest 351 404 38,000 86 Level FlightAware ADS-B
Sat 07:42:17 PM -33.9412 147.4834 218° Southwest 358 412 38,100  Climbing Aus ATC (RADAR)
Sat 07:42:32 PM -33.9520 147.4730 218° Southwest 352 405 38,000  Descending FlightAware ADS-B
Sat 07:42:50 PM -33.9828 147.4440 218° Southwest 356 410 38,100  Climbing Aus ATC (RADAR)
Sat 07:43:27 PM -34.0240 147.4050 218° Southwest 351 404 38,000  Descending FlightAware ADS-B
Sat 07:44:07 PM -34.0841 147.3484 218° Southwest 356 410 38,100 109 Climbing Aus ATC (RADAR)
Sat 07:44:22 PM -34.1035 147.3302 218° Southwest 355 409 38,100 -133 Level Aus ATC (RADAR)
Sat 07:44:52 PM -34.1330 147.3010 218° Southwest 350 403 38,000 -86 Descending FlightAware ADS-B
Sat 07:45:32 PM -34.1870 147.2510 217° Southwest 350 403 38,000 75 Level FlightAware ADS-B
Sat 07:46:12 PM -34.2460 147.1948 217° Southwest 354 407 38,100  Climbing Aus ATC (RADAR)
Sat 07:46:17 PM -34.2450 147.1950 217° Southwest 349 402 38,000  Descending FlightAware ADS-B
Sat 07:46:49 PM -34.2939 147.1494 217° Southwest 354 407 38,100  Climbing Aus ATC (RADAR)
Sat 07:46:57 PM -34.2960 147.1460 217° Southwest 354 407 38,000  Descending FlightAware ADS-B
Sat 07:47:34 PM -34.3515 147.0943 217° Southwest 352 405 38,100  Climbing Aus ATC (RADAR)
Sat 07:47:42 PM -34.3550 147.0900 217° Southwest 353 406 38,000  Descending FlightAware ADS-B
Sat 07:48:09 PM -34.3964 147.0513 217° Southwest 352 405 38,100  Climbing Aus ATC (RADAR)
Sat 07:48:22 PM -34.4080 147.0390 217° Southwest 353 406 38,000 -103 Descending FlightAware ADS-B
Sat 07:49:07 PM -34.4650 146.9850 218° Southwest 353 406 38,000 92 Level FlightAware ADS-B
Sat 07:49:27 PM -34.4964 146.9557 218° Southwest 350 403 38,100  Climbing Aus ATC (RADAR)
Sat 07:49:47 PM -34.5180 146.9340 218° Southwest 353 406 38,000 -100 Descending FlightAware ADS-B
Sat 07:50:27 PM -34.5680 146.8860 218° Southwest 353 406 38,000 86 Level FlightAware ADS-B
Sat 07:50:57 PM -34.6123 146.8456 218° Southwest 352 405 38,100  Climbing Aus ATC (RADAR)
Sat 07:51:12 PM -34.6250 146.8310 218° Southwest 353 406 38,000  Descending FlightAware ADS-B
Sat 07:51:31 PM -34.6571 146.8024 218° Southwest 352 405 38,100  Climbing Aus ATC (RADAR)
Sat 07:51:52 PM -34.6780 146.7800 218° Southwest 353 406 38,000  Descending FlightAware ADS-B
Sat 07:52:31 PM -34.7332 146.7284 218° Southwest 349 402 38,100  Climbing Aus ATC (RADAR)
Sat 07:52:37 PM -34.7350 146.7250 218° Southwest 353 406 38,000  Descending FlightAware ADS-B
Sat 07:53:06 PM -34.7783 146.6855 218° Southwest 352 405 38,100  Climbing Aus ATC (RADAR)
Sat 07:53:17 PM -34.7860 146.6750 218° Southwest 354 407 38,000 -118 Descending FlightAware ADS-B
Sat 07:53:57 PM -34.8380 146.6250 218° Southwest 355 409 38,000 91 Level FlightAware ADS-B
Sat 07:54:23 PM -34.8755 146.5897 218° Southwest 353 406 38,100  Climbing Aus ATC (RADAR)
Sat 07:54:42 PM -34.8960 146.5690 218° Southwest 355 409 38,000  Descending FlightAware ADS-B
Sat 07:55:11 PM -34.9386 146.5304 218° Southwest 355 409 38,100  Climbing Aus ATC (RADAR)
Sat 07:55:22 PM -34.9480 146.5190 218° Southwest 355 409 38,000  Descending FlightAware ADS-B
Sat 07:56:11 PM -35.0144 146.4548 218° Southwest 354 407 38,100 71 Climbing Aus ATC (RADAR)
Sat 07:56:46 PM -35.0609 146.4116 217° Southwest 356 410 38,100 -118 Level Aus ATC (RADAR)
Sat 07:57:02 PM -35.0710 146.3980 217° Southwest 356 410 38,000 -643 Descending FlightAware ADS-B
Sat 07:57:42 PM -35.1220 146.3480 219° Southwest 351 404 37,500 -787 Descending FlightAware ADS-B
Sat 07:58:03 PM -35.1573 146.3155 219° Southwest 349 402 37,200 -900 Descending Aus ATC (RADAR)
Sat 07:58:22 PM -35.1730 146.2990 219° Southwest 350 403 36,900 -906 Descending FlightAware ADS-B
Sat 07:58:56 PM -35.2240 146.2496 219° Southwest 348 400 36,400 -933 Descending Aus ATC (RADAR)
Sat 07:59:07 PM -35.2320 146.2410 219° Southwest 355 409 36,200 -1,125 Descending FlightAware ADS-B
Sat 07:59:28 PM -35.2649 146.2083 219° Southwest 357 411 35,800 -1,000 Descending Aus ATC (RADAR)
Sat 07:59:43 PM -35.2846 146.1895 218° Southwest 359 413 35,600 -947 Descending Aus ATC (RADAR)
Sat 07:59:47 PM -35.2820 146.1910 218° Southwest 357 411 35,500 -1,029 Descending FlightAware ADS-B
Sat 08:00:18 PM -35.3303 146.1448 218° Southwest 364 419 35,000 -933 Descending Aus ATC (RADAR)
Sat 08:00:32 PM -35.3420 146.1330 218° Southwest 358 412 34,800 -1,000 Descending FlightAware ADS-B
Sat 08:01:12 PM -35.3950 146.0800 219° Southwest 360 414 34,100 -560 Descending FlightAware ADS-B
Sat 08:01:47 PM -35.4492 146.0288 219° Southwest 365 420 34,100 -150 Level Aus ATC (RADAR)
Sat 08:01:52 PM -35.4470 146.0290 219° Southwest 361 415 34,000 -120 Descending FlightAware ADS-B
Sat 08:02:37 PM -35.5060 145.9700 219° Southwest 357 411 34,000  Level FlightAware ADS-B
Sat 08:03:17 PM -35.5590 145.9180 219° Southwest 355 409 34,000  Level FlightAware ADS-B
Sat 08:04:02 PM -35.6190 145.8580 219° Southwest 359 413 34,000 92 Level FlightAware ADS-B
Sat 08:04:22 PM -35.6504 145.8283 219° Southwest 358 412 34,100 171 Climbing Aus ATC (RADAR)
Sat 08:04:37 PM -35.6699 145.8089 219° Southwest 359 413 34,100 -300 Level Aus ATC (RADAR)
Sat 08:04:42 PM -35.6720 145.8050 219° Southwest 359 413 34,000  Descending FlightAware ADS-B
Sat 08:05:12 PM -35.7151 145.7641 219° Southwest 358 412 34,100  Climbing Aus ATC (RADAR)
Sat 08:05:22 PM -35.7240 145.7540 219° Southwest 361 415 34,000 -109 Descending FlightAware ADS-B
Sat 08:06:07 PM -35.7820 145.6960 219° Southwest 362 417 34,000  Level FlightAware ADS-B
Sat 08:06:42 PM -35.8260 145.6520 219° Southwest 362 417 34,000  Level FlightAware ADS-B
Sat 08:07:37 PM -35.8960 145.5810 219° Southwest 361 415 34,000 60 Level FlightAware ADS-B
Sat 08:08:22 PM -35.9610 145.5173 219° Southwest 359 413 34,100 50 Climbing Aus ATC (RADAR)
Sat 08:09:37 PM -36.0580 145.4190 219° Southwest 361 415 34,100  Level Aus ATC (RADAR)
Sat 08:09:52 PM -36.0776 145.3992 219° Southwest 363 418 34,100  Level Aus ATC (RADAR)
Sat 08:10:27 PM -36.1230 145.3539 219° Southwest 362 417 34,100  Level Aus ATC (RADAR)
Sat 08:11:32 PM -36.2072 145.2679 219° Southwest 363 418 34,100 -61 Level Aus ATC (RADAR)
Sat 08:12:06 PM -36.2527 145.2218 219° Southwest 363 418 34,000 -1,416 Descending Aus ATC (RADAR)
Sat 08:13:01 PM -36.3237 145.1491 219° Southwest 363 418 32,000 -2,200 Descending Aus ATC (RADAR)
Sat 08:13:36 PM -36.3685 145.1028 220° Southwest 362 417 30,700 -2,258 Descending Aus ATC (RADAR)
Sat 08:14:34 PM -36.4449 145.0281 218° Southwest 353 406 28,500 -2,229 Descending Aus ATC (RADAR)
Sat 08:15:21 PM -36.5047 144.9637 221° Southwest 371 427 26,800 -2,243 Descending Aus ATC (RADAR)
Sat 08:16:21 PM -36.5858 144.8806 219° Southwest 383 441 24,500 -2,274 Descending Aus ATC (RADAR)
Sat 08:16:56 PM -36.6336 144.8314 220° Southwest 385 443 23,200 -2,067 Descending Aus ATC (RADAR)
Sat 08:17:51 PM -36.7060 144.7571 219° Southwest 368 423 21,400 -2,333 Descending Aus ATC (RADAR)
Sat 08:18:26 PM -36.7519 144.7092 220° Southwest 371 427 19,700 -2,229 Descending Aus ATC (RADAR)
Sat 08:19:36 PM -36.8584 144.6605 200° South 369 425 17,500 -2,021 Descending Aus ATC (RADAR)
Sat 08:20:01 PM -36.8997 144.6726 167° South 364 419 16,500 -2,047 Descending Aus ATC (RADAR)
Sat 08:21:01 PM -36.9980 144.6943 170° South 354 407 14,600 -2,000 Descending Aus ATC (RADAR)
Sat 08:21:40 PM -37.0615 144.7085 170° South 345 397 13,200 -1,953 Descending Aus ATC (RADAR)
Sat 08:23:10 PM -37.2010 144.7394 170° South 330 380 10,400 -1,440 Descending Aus ATC (RADAR)
Sat 08:24:10 PM -37.2838 144.7568 171° South 293 337 9,600 -1,034 Descending Aus ATC (RADAR)
Sat 08:25:35 PM -37.3965 144.7614 178° South 288 331 7,900 -1,140 Descending Aus ATC (RADAR)
Sat 08:25:50 PM -37.4161 144.7590 186° South 286 329 7,700 -960 Descending Aus ATC (RADAR)
Sat 08:26:25 PM -37.4623 144.7546 184° South 286 329 7,100 -840 Descending Aus ATC (RADAR)
Sat 08:27:30 PM -37.5487 144.7460 185° South 287 330 6,300 -660 Descending Aus ATC (RADAR)
Sat 08:28:05 PM -37.5946 144.7417 184° South 284 327 6,000 -525 Descending Aus ATC (RADAR)
Sat 08:28:50 PM -37.6532 144.7355 185° South 279 321 5,600 -1,200 Descending Aus ATC (RADAR)
Sat 08:29:25 PM -37.6976 144.7313 184° South 274 315 4,400 -1,468 Descending Aus ATC (RADAR)
Sat 08:30:24 PM -37.7557 144.7491 166° South 216 249 3,300 -973 Descending Aus ATC (RADAR)
Sat 08:30:39 PM -37.7578 144.7648 100° East 188 216 3,200 -727 Descending Aus ATC (RADAR)
Sat 08:30:57 PM -37.7590 144.7770 100° East 173 199 2,900 -1,029 Descending FlightAware ADS-B
Sat 08:31:14 PM -37.7612 144.7991 100° East 166 191 2,600 -686 Descending Aus ATC (RADAR)
Sat 08:32:07 PM -37.7610 144.8370 100° East 125 144 2,100 -667 Descending FlightAware ADS-B
Sat 08:32:17 PM -37.7570 144.8430 50° Northeast 118 136 1,900 -720 Descending FlightAware ADS-B
Sat 08:32:32 PM -37.7510 144.8480 33° Northeast 110 127 1,800 -600 Descending FlightAware ADS-B
Sat 08:33:17 PM -37.7270 144.8490 North 118 136 1,300 -686 Descending FlightAware ADS-B
Sat 08:33:42 PM -37.7110 144.8460 352° North 115 132 1,000 -667 Descending FlightAware ADS-B
Sat 08:34:02 PM -37.7020 144.8440 350° North 113 130 800 -811 Descending FlightAware ADS-B
Sat 08:34:19 PM -37.6895 144.8419 350° North 117 135 500 -1,059 Descending Aus ATC (RADAR)

Login

Don't have an account? Register now (free) for customized features, flight alerts, and more!